Latest Weather Observations for Mount Hotham Airport

IDV60801

Issued at 10:42 pm EST Wednesday 12 August 2020 (issued every 10 minutes, with the page automatically refreshed every 10 minutes)

About weather observations | Map of weather stations | Latest weather observations for VIC | Other Formats
Station Details ID: 083055 Name: MOUNT HOTHAM AIRPORT Lat: -37.05 Lon: 147.33 Height: 1295.4 m
Data from the previous 72 hours. | See also: Recent months at Mount Hotham Airport
Date/Time
EST
Temp
°C
App
Temp
°C
Dew
Point
°C
Rel
Hum
%
Delta-T
°C
Wind Press
QNH
hPa
Press
MSL
hPa
Rain since
9am
mm
Dir  Spd
km/h
Gust
km/h
Spd
kts
Gust
kts
12/10:30pm 4.4 1.7 3.8 96 0.3 NNE 7 11 4 6 1011.3 1012.6 0.8
12/10:00pm 4.8 -0.1 3.9 94 0.4 NW 19 28 10 15 1011.3 1012.6 0.8
12/09:30pm 4.6 0.9 4.2 97 0.2 NNW 13 20 7 11 1011.0 1012.2 0.8
12/09:00pm 4.2 0.1 4.1 99 0.0 NW 15 24 8 13 1011.2 1012.5 0.8
12/08:49pm 3.9 0.8 3.8 99 0.0 NW 9 17 5 9 1011.3 1012.6 0.8
12/08:30pm 2.8 0.5 2.7 99 0.0 S 4 7 2 4 1011.2 1012.5 0.8
12/08:26pm 3.1 0.8 3.0 99 0.0 NNW 4 7 2 4 1011.0 1012.2 0.8
12/08:18pm 3.9 1.4 3.8 99 0.0 NNW 6 9 3 5 1011.1 1012.4 0.8
12/08:00pm 4.1 1.5 4.0 99 0.0 NNW 7 17 4 9 1011.0 1012.2 0.8
12/07:30pm 4.1 0.7 4.0 99 0.0 NNW 11 17 6 9 1010.9 1012.1 0.8
12/07:00pm 4.5 1.2 4.4 99 0.0 NNW 11 13 6 7 1010.8 1012.0 0.6
12/06:30pm 4.9 0.8 4.5 97 0.2 NNW 15 20 8 11 1010.5 1011.8 0.4
12/06:00pm 4.6 1.3 4.5 99 0.0 N 11 15 6 8 1010.3 1011.5 0.4
12/05:30pm 4.7 1.8 4.6 99 0.0 NNW 9 13 5 7 1010.2 1011.4 0.2
12/05:00pm 5.0 2.5 4.7 98 0.1 N 7 13 4 7 1009.9 1011.1 0.0
12/04:30pm 5.2 2.7 4.8 97 0.2 NNE 7 11 4 6 1009.7 1011.0 0.0
12/04:00pm 5.2 2.9 4.6 96 0.3 NE 6 11 3 6 1009.5 1010.7 0.0
12/03:30pm 5.2 2.7 4.5 95 0.3 NNE 7 11 4 6 1009.5 1010.7 0.0
12/03:00pm 5.1 1.9 5.0 99 0.0 N 11 24 6 13 1009.5 1010.7 0.0
12/02:30pm 4.8 2.5 4.7 99 0.0 N 6 9 3 5 1009.9 1011.1 0.0
12/02:00pm 4.5 0.8 4.4 99 0.0 NNW 13 20 7 11 1010.0 1011.2 0.0
12/01:30pm 4.6 0.5 4.5 99 0.0 NNW 15 35 8 19 1010.0 1011.2 0.0
12/01:00pm 4.5 2.5 4.4 99 0.0 NNE 4 9 2 5 1010.3 1011.5 0.0
12/12:54pm 4.4 1.8 4.3 99 0.0 N 7 13 4 7 1010.4 1011.7 0.0
12/12:41pm 4.3 0.8 3.7 96 0.3 NNW 11 17 6 9 1010.6 1011.9 0.0
12/12:30pm 4.2 0.7 3.3 94 0.4 N 11 19 6 10 1010.8 1012.0 0.0
12/12:00pm 4.5 0.2 3.3 92 0.5 N 15 26 8 14 1011.2 1012.5 0.0
12/11:30am 4.5 0.6 3.3 92 0.5 N 13 20 7 11 1011.6 1012.8 0.0
12/11:00am 4.8 0.1 3.1 89 0.8 NNW 17 28 9 15 1011.8 1013.1 0.0
12/10:30am 4.8 -0.3 3.0 88 0.8 NNW 19 26 10 14 1012.1 1013.4 0.0
12/10:00am 5.0 -1.1 3.0 87 0.9 NNW 24 37 13 20 1012.3 1013.6 0.0
12/09:30am 4.6 -0.8 2.6 87 0.9 NNW 20 30 11 16 1012.6 1013.9 0.0
12/09:00am 4.3 -0.2 2.2 86 0.9 NNE 15 17 8 9 1012.7 1014.0 0.0
12/08:30am 4.2 -0.3 1.9 85 1.0 NNE 15 17 8 9 1012.7 1014.0 0.0
12/08:00am 3.1 -1.6 1.2 87 0.8 NNE 15 17 8 9 1012.7 1014.0 0.0
12/07:30am 3.1 -1.5 1.5 89 0.7 NNE 15 17 8 9 1012.8 1014.1 0.0
12/07:00am 2.9 -1.0 1.4 90 0.6 N 11 13 6 7 1012.7 1014.0 0.0
12/06:30am 2.5 -0.4 1.6 94 0.4 ENE 6 7 3 4 1012.8 1014.1 0.0
12/06:00am 2.6 -0.4 0.8 88 0.7 ENE 6 9 3 5 1012.8 1014.1 0.0
12/05:30am 2.1 -0.9 0.5 89 0.7 E 6 7 3 4 1013.0 1014.3 0.0
12/05:00am 3.0 -0.7 -0.1 80 1.3 NNE 9 15 5 8 1013.4 1014.7 0.0
12/04:30am 3.3 -0.4 -0.2 78 1.4 N 9 17 5 9 1013.6 1014.9 0.0
12/04:00am 3.1 -1.0 -0.2 79 1.3 NNW 11 15 6 8 1013.8 1015.2 0.0
12/03:30am 2.9 -2.7 0.0 81 1.2 NNW 19 30 10 16 1013.6 1014.9 0.0
12/03:18am 2.9 -2.7 0.0 81 1.2 NNW 19 28 10 15 1013.4 1014.7 0.0
12/03:00am 2.7 -2.5 -0.1 82 1.1 NNW 17 24 9 13 1013.4 1014.7 0.0
12/02:58am 2.6 -2.6 -0.2 82 1.1 N 17 24 9 13 1013.5 1014.8 0.0
12/02:43am 2.8 -2.0 0.0 82 1.1 NNW 15 22 8 12 1013.5 1014.8 0.0
12/02:30am 2.6 -1.9 -0.2 82 1.1 NNW 13 20 7 11 1013.7 1015.0 0.0
12/02:00am 2.9 -1.8 0.6 85 0.9 NNW 15 20 8 11 1013.9 1015.3 0.0
12/01:51am 2.9 -2.2 0.8 86 0.9 NNW 17 24 9 13 1014.0 1015.4 0.0
12/01:30am 2.8 -2.7 0.7 86 0.9 NNW 19 28 10 15 1014.3 1015.6 0.0
12/01:00am 3.0 -2.6 0.1 81 1.2 NNW 19 32 10 17 1014.6 1016.0 0.0
12/12:59am 3.0 -2.6 0.1 81 1.2 NNW 19 32 10 17 1014.7 1016.1 0.0
12/12:30am 3.1 -1.7 -2.2 68 2.0 NNW 13 20 7 11 1014.4 1015.7 0.0
12/12:00am 2.8 -1.3 -2.9 66 2.1 NNW 9 13 5 7 1014.4 1015.7 0.0
 
Date/Time
EST
Temp
°C
App
Temp
°C
Dew
Point
°C
Rel
Hum
%
Delta-T
°C
Wind Press
QNH
hPa
Press
MSL
hPa
Rain since
9am
mm
Dir  Spd
km/h
Gust
km/h
Spd
kts
Gust
kts
11/11:30pm 2.7 -1.7 -2.8 67 2.1 NNW 11 17 6 9 1014.3 1015.6 0.0
11/11:00pm 3.0 -3.0 -2.9 65 2.2 NNW 19 32 10 17 1014.8 1016.2 0.0
11/10:30pm -0.2 -3.1 -0.8 96 0.2 WNW 4 6 2 3 1014.8 1016.2 0.0
11/10:00pm 0.0 -2.5 -1.0 93 0.4 WNW 2 6 1 3 1014.8 1016.2 0.0
11/09:30pm 1.2 -1.9 0.0 92 0.5 NNW 6 9 3 5 1015.2 1016.6 0.0
11/09:00pm 1.4 -2.3 0.2 92 0.5 N 9 13 5 7 1015.2 1016.6 0.0
11/08:30pm 1.4 -2.6 0.4 93 0.4 NNW 11 13 6 7 1015.4 1016.8 0.0
11/08:00pm 0.6 -2.3 -0.8 90 0.5 NNW 4 6 2 3 1015.5 1016.9 0.0
11/07:30pm 1.2 -2.1 -1.2 84 0.9 NNE 6 7 3 4 1015.6 1017.0 0.0
11/07:16pm 1.9 -1.3 -0.8 82 1.1 NNE 6 7 3 4 1015.7 1017.2 0.0
11/07:00pm 2.3 -0.9 -0.3 83 1.0 N 6 7 3 4 1015.7 1017.2 0.0
11/06:30pm 2.3 -1.1 -0.4 82 1.1 N 7 7 4 4 1015.9 1017.3 0.0
11/06:00pm 2.4 -0.9 0.0 84 1.0 NW 7 11 4 6 1016.1 1017.5 0.0
11/05:30pm 1.7 -2.2 -1.7 78 1.3 WNW 9 13 5 7 1016.3 1017.7 0.0
11/05:00pm 4.4 0.8 -2.0 63 2.5 WNW 7 11 4 6 1016.2 1017.6 0.0
11/04:30pm 7.1 3.2 -1.8 53 3.6 NW 9 13 5 7 1016.1 1017.5 0.0
11/04:00pm 7.5 3.8 -2.8 48 4.1 NW 7 9 4 5 1015.9 1017.3 0.0
11/03:30pm 7.7 3.7 -2.3 49 4.0 NNW 9 13 5 7 1016.1 1017.5 0.0
11/03:00pm 9.7 3.8 -5.4 34 5.8 NW 17 24 9 13 1016.1 1017.5 0.0
11/02:30pm 10.8 6.0 -6.1 30 6.5 NNW 11 19 6 10 1016.1 1017.5 0.0
11/02:00pm 10.0 6.2 -3.6 38 5.5 NNE 7 17 4 9 1016.3 1017.7 0.0
11/01:30pm 9.4 6.4 0.8 55 3.8 ESE 6 7 3 4 1016.4 1017.9 0.0
11/01:00pm 8.9 5.8 0.1 54 3.8 SSE 6 11 3 6 1016.8 1018.2 0.0
11/12:30pm 9.0 5.5 1.0 57 3.5 ESE 9 13 5 7 1016.8 1018.2 0.0
11/12:00pm 9.4 6.3 0.1 52 4.0 ESE 6 9 3 5 1017.4 1018.9 0.0
11/11:30am 9.0 5.6 -0.6 51 4.1 ESE 7 9 4 5 1017.9 1019.4 0.0
11/11:00am 8.3 4.9 -2.0 48 4.2 SE 6 7 3 4 1018.4 1019.8 0.0
11/10:30am 7.9 4.5 -0.8 54 3.6 SSE 7 7 4 4 1018.5 1020.0 0.0
11/10:00am 9.3 6.2 -2.9 42 4.9 ESE 4 6 2 3 1018.5 1020.0 0.0
11/09:30am 6.6 3.7 -3.9 47 4.0 SE 2 4 1 2 1018.6 1020.1 0.0
11/09:00am 6.5 3.6 -4.0 47 4.0 NW 2 4 1 2 1018.6 1020.1 0.0
11/08:30am 2.4 -1.0 -2.3 71 1.8 NW 6 7 3 4 1018.7 1020.2 0.0
11/08:00am -0.2 -3.9 -5.0 70 1.7 NW 6 7 3 4 1018.8 1020.3 0.0
11/07:30am -1.4 -5.4 -5.6 73 1.3 N 7 11 4 6 1018.7 1020.2 0.0
11/07:00am -1.3 -6.0 -5.0 76 1.2 NNW 11 15 6 8 1018.5 1020.0 0.0
11/06:30am -2.0 -6.3 -5.0 80 0.9 N 9 13 5 7 1018.6 1020.1 0.0
11/06:00am -0.9 -6.0 -5.1 73 1.4 NNW 13 15 7 8 1018.7 1020.2 0.0
11/05:30am -0.2 -5.5 -6.8 61 2.2 NNW 13 17 7 9 1018.7 1020.2 0.0
11/05:00am -2.7 -7.4 -8.9 62 1.8 NW 9 11 5 6 1018.7 1020.2 0.0
11/04:30am -2.4 -6.6 -8.1 65 1.7 NNW 7 11 4 6 1018.6 1020.1 0.0
11/04:00am -3.1 -7.1 -5.7 82 0.7 NNW 7 9 4 5 1018.6 1020.1 0.0
11/03:30am -0.7 -6.0 -3.2 83 0.9 NNW 15 17 8 9 1018.6 1020.1 0.0
11/03:00am -3.4 -7.2 -5.7 84 0.6 NW 6 7 3 4 1018.7 1020.2 0.0
11/02:30am -3.1 -7.5 -5.6 83 0.7 NNW 9 13 5 7 1019.3 1020.8 0.0
11/02:00am -1.7 -5.5 -3.4 88 0.5 NNW 7 13 4 7 1019.6 1021.1 0.0
11/01:30am -0.1 -4.2 -2.8 82 1.0 N 9 13 5 7 1020.2 1021.7 0.0
11/01:00am 0.1 -4.1 -4.2 73 1.5 NW 9 13 5 7 1020.4 1021.9 0.0
11/12:30am -0.5 -6.0 -5.5 69 1.7 WNW 15 20 8 11 1020.3 1021.8 0.0
11/12:00am -0.8 -5.5 -5.2 72 1.5 NW 11 17 6 9 1020.3 1021.8 0.0
 
Date/Time
EST
Temp
°C
App
Temp
°C
Dew
Point
°C
Rel
Hum
%
Delta-T
°C
Wind Press
QNH
hPa
Press
MSL
hPa
Rain since
9am
mm
Dir  Spd
km/h
Gust
km/h
Spd
kts
Gust
kts
10/11:30pm -0.8 -5.4 -4.5 76 1.3 NNW 11 15 6 8 1020.1 1021.6 0.0
10/11:00pm -2.3 -6.8 -6.6 72 1.3 NW 9 9 5 5 1020.2 1021.7 0.0
10/10:30pm -2.1 -6.3 -4.3 85 0.7 NNW 9 11 5 6 1020.2 1021.7 0.0
10/10:00pm -1.8 -5.4 -3.8 86 0.6 NNW 6 7 3 4 1020.3 1021.8 0.0
10/09:30pm -2.1 -5.9 -4.1 86 0.6 NNW 7 11 4 6 1019.9 1021.5 0.0
10/09:00pm -0.7 -4.1 -0.8 99 0.0 NNW 7 9 4 5 1020.1 1021.6 0.0
10/08:30pm -1.9 -5.4 -2.5 96 0.1 NW 6 9 3 5 1020.2 1021.7 0.0
10/08:00pm -2.0 -5.7 -2.6 96 0.1 NNW 7 11 4 6 1020.1 1021.6 0.0
10/07:30pm -1.0 -4.4 -1.7 95 0.2 NW 6 7 3 4 1020.1 1021.6 0.0
10/07:00pm 0.3 -1.7 -0.1 97 0.2 CALM 0 2 0 1 1019.9 1021.5 0.0
10/06:30pm 0.9 -1.9 -0.1 93 0.4 WNW 4 6 2 3 1020.1 1021.6 0.0
10/06:00pm 0.9 -1.6 -1.0 87 0.7 W 2 6 1 3 1019.8 1021.4 0.0
10/05:30pm 1.2 -1.1 -2.0 79 1.3 CALM 0 4 0 2 1019.8 1021.4 0.0
10/05:00pm 5.8 2.7 0.2 67 2.4 NE 6 7 3 4 1019.8 1021.4 0.0
10/04:30pm 6.9 4.1 -0.3 60 3.0 NE 4 7 2 4 1020.1 1021.6 0.0
10/04:00pm 7.1 3.9 -0.6 58 3.2 ESE 6 7 3 4 1019.9 1021.5 0.0
10/03:30pm 7.8 5.0 -0.4 56 3.5 ENE 4 7 2 4 1020.1 1021.6 0.0
10/03:00pm 7.4 4.2 -0.5 57 3.3 SE 6 11 3 6 1020.2 1021.7 0.0
10/02:30pm 6.8 3.2 0.7 65 2.6 SSE 9 13 5 7 1020.2 1021.7 0.0
10/02:00pm 6.7 3.4 0.2 63 2.8 SE 7 13 4 7 1020.1 1021.6 0.0
10/01:30pm 6.2 2.0 -1.0 60 3.0 SE 11 15 6 8 1020.3 1021.8 0.0
10/01:00pm 6.1 2.6 -1.5 58 3.1 E 7 15 4 8 1020.5 1022.1 0.0
10/12:30pm 6.4 3.3 1.1 69 2.3 ESE 7 13 4 7 1021.0 1022.5 0.0
10/12:00pm 5.7 2.3 -0.8 63 2.7 NE 7 15 4 8 1021.5 1023.1 0.0
10/11:30am 4.9 0.5 0.1 71 2.0 E 13 17 7 9 1021.9 1023.5 0.0
10/11:00am 4.8 1.2 0.8 75 1.7 E 9 13 5 7 1022.0 1023.6 0.0
10/10:30am 4.0 0.8 0.9 80 1.3 ESE 7 15 4 8 1021.9 1023.5 0.0
10/10:00am 3.1 -0.6 0.2 81 1.2 E 9 15 5 8 1022.0 1023.6 0.0
10/09:35am 2.4 -1.5 0.9 90 0.6 ESE 11 15 6 8 1022.0 1023.6 0.0
10/09:30am 1.8 -2.2 0.6 92 0.5 ESE 11 15 6 8 1022.0 1023.6 0.0
10/09:00am 1.9 -1.6 1.3 96 0.2 ESE 9 17 5 9 1022.1 1023.7 3.4
10/08:30am 1.0 -2.0 0.9 99 0.0 SE 6 9 3 5 1021.8 1023.4 3.4
10/08:00am 0.2 -2.9 0.1 99 0.0 ESE 6 11 3 6 1021.8 1023.4 3.4
10/07:30am -0.1 -2.9 -0.2 99 0.0 E 4 7 2 4 1021.5 1023.1 3.4
10/07:00am 0.2 -3.1 0.1 99 0.0 ESE 7 9 4 5 1021.1 1022.6 3.4
10/06:30am 0.3 -3.0 0.2 99 0.0 SE 7 13 4 7 1020.9 1022.4 3.4
10/06:00am 0.5 -2.6 0.4 99 0.0 SSE 6 9 3 5 1020.6 1022.2 3.4
10/05:30am 0.7 -2.5 0.6 99 0.0 SE 7 11 4 6 1020.1 1021.6 3.4
10/05:00am 0.6 -3.8 0.5 99 0.0 SE 13 17 7 9 1019.8 1021.4 3.4
10/04:30am 0.6 -3.0 0.5 99 0.0 SE 9 13 5 7 1019.5 1021.0 3.4
10/04:00am 0.7 -3.7 0.6 99 0.0 SE 13 19 7 10 1019.3 1020.8 3.4
10/03:30am 0.7 -3.7 0.6 99 0.0 SE 13 20 7 11 1019.5 1021.0 3.4
10/03:00am 0.8 -4.3 0.7 99 0.0 SE 17 24 9 13 1019.4 1020.9 3.4
10/02:30am 1.2 -3.8 1.1 99 0.0 SE 17 22 9 12 1019.4 1020.9 3.4
10/02:00am 1.3 -4.3 1.2 99 0.0 SE 20 30 11 16 1019.4 1020.9 3.4
10/01:30am 1.5 -3.5 1.4 99 0.0 SE 17 24 9 13 1019.3 1020.8 3.4
10/01:04am 1.5 -3.1 1.4 99 0.0 SE 15 22 8 12 1019.3 1020.8 3.4
10/01:00am 1.5 -3.1 1.4 99 0.0 SE 15 22 8 12 1019.4 1020.9 3.4
10/12:44am 1.6 -2.6 1.5 99 0.0 SE 13 19 7 10 1019.3 1020.8 3.4
10/12:39am 1.6 -3.0 1.5 99 0.0 SE 15 22 8 12 1019.2 1020.7 3.4
10/12:30am 1.6 -2.6 1.5 99 0.0 SE 13 19 7 10 1019.2 1020.7 3.4
10/12:00am 1.8 -3.1 1.7 99 0.0 ESE 17 22 9 12 1019.3 1020.8 3.4
 
Date/Time
EST
Temp
°C
App
Temp
°C
Dew
Point
°C
Rel
Hum
%
Delta-T
°C
Wind Press
QNH
hPa
Press
MSL
hPa
Rain since
9am
mm
Dir  Spd
km/h
Gust
km/h
Spd
kts
Gust
kts
09/11:30pm 2.0 -2.5 1.9 99 0.0 ESE 15 19 8 10 1019.4 1020.9 3.2
09/11:00pm 2.0 -3.3 1.9 99 0.0 ESE 19 30 10 16 1019.6 1021.1 3.2

Other formats

Comma delimited format used in spreadsheet applications
http://www.bom.gov.au/fwo/IDV60801/IDV60801.94905.axf

JavaScript Object Notation format (JSON) in row-major order
http://www.bom.gov.au/fwo/IDV60801/IDV60801.94905.json

Data quality

Most of these data are generated automatically and are frequently updated. Quality checks on data are not normally performed. It is possible for incorrect values to appear. Refer to information at About Latest Weather Observations and please check the disclaimer before using these data.